Time;durP1;ratioP1;P1;durP2;ratioP2;P2;SDS_P1;SDS_P2;PMS_P1;PMS_P2;Temp;Humidity;BMP_temperature;BMP_pressure;BME280_temperature;BME280_humidity;BME280_pressure;Samples;Min_cycle;Max_cycle;Signal;HPM_P1;HPM_P2
2024/01/18 00:00:18;;;;;;;5.00;4.10;;;;;;;;;;6182037;23;20020;-85
2024/01/18 00:03:06;;;;;;;5.97;4.13;;;;;;;;;;6202725;23;20021;-85
2024/01/18 00:05:55;;;;;;;4.97;4.03;;;;;;;;;;6202698;23;20020;-86
2024/01/18 00:08:40;;;;;;;5.88;3.50;;;;;;;;;;6181547;23;20017;-86
2024/01/18 00:11:27;;;;;;;4.05;3.65;;;;;;;;;;6202366;23;20021;-86
2024/01/18 00:14:13;;;;;;;5.00;4.07;;;;;;;;;;6181651;23;20020;-86
2024/01/18 00:16:59;;;;;;;4.07;3.65;;;;;;;;;;6202740;23;20330;-85
2024/01/18 00:19:46;;;;;;;4.07;3.30;;;;;;;;;;6181728;23;20016;-86
2024/01/18 00:22:35;;;;;;;4.13;3.63;;;;;;;;;;6181974;23;20017;-85
2024/01/18 00:25:21;;;;;;;5.20;3.63;;;;;;;;;;6161076;23;20016;-86
2024/01/18 00:28:07;;;;;;;4.50;3.65;;;;;;;;;;6181529;23;20016;-85
2024/01/18 00:30:53;;;;;;;4.10;3.70;;;;;;;;;;6181139;23;20025;-84
2024/01/18 00:33:39;;;;;;;4.97;3.70;;;;;;;;;;6181507;23;20020;-85
2024/01/18 00:36:29;;;;;;;4.22;3.55;;;;;;;;;;6182072;23;20025;-86
2024/01/18 00:39:18;;;;;;;4.50;3.88;;;;;;;;;;6181386;23;20013;-86
2024/01/18 00:42:07;;;;;;;4.07;3.67;;;;;;;;;;6181396;23;20020;-86
2024/01/18 00:44:55;;;;;;;6.25;3.88;;;;;;;;;;6202988;23;20012;-86
2024/01/18 00:47:41;;;;;;;4.65;3.75;;;;;;;;;;6181499;23;20453;-85
2024/01/18 00:50:27;;;;;;;4.15;3.75;;;;;;;;;;6202624;23;20021;-86
2024/01/18 00:53:14;;;;;;;5.07;3.78;;;;;;;;;;6180796;23;20013;-85
2024/01/18 00:56:00;;;;;;;5.60;3.92;;;;;;;;;;6199580;23;20025;-86
2024/01/18 00:58:45;;;;;;;4.00;3.28;;;;;;;;;;6181419;23;20017;-86
2024/01/18 01:01:31;;;;;;;4.10;3.70;;;;;;;;;;6181071;23;20017;-85
2024/01/18 01:04:17;;;;;;;4.18;3.20;;;;;;;;;;6180737;23;20017;-86
2024/01/18 01:07:06;;;;;;;4.55;3.20;;;;;;;;;;6181404;23;20017;-86
2024/01/18 01:09:55;;;;;;;3.47;3.17;;;;;;;;;;6202639;23;20016;-86
2024/01/18 01:12:41;;;;;;;4.10;3.10;;;;;;;;;;6180647;23;20020;-86
2024/01/18 01:15:27;;;;;;;3.97;3.53;;;;;;;;;;6181120;23;20024;-86
2024/01/18 01:18:13;;;;;;;3.53;3.22;;;;;;;;;;6181162;23;20476;-86
2024/01/18 01:20:59;;;;;;;4.07;3.10;;;;;;;;;;6181318;23;20449;-86
2024/01/18 01:23:51;;;;;;;3.92;3.17;;;;;;;;;;6181420;23;20334;-85
2024/01/18 01:26:38;;;;;;;4.05;3.22;;;;;;;;;;6181261;23;20465;-86
2024/01/18 01:29:24;;;;;;;3.72;2.55;;;;;;;;;;6181124;23;20338;-86
2024/01/18 01:32:10;;;;;;;3.65;3.10;;;;;;;;;;6201919;23;20021;-86
2024/01/18 01:34:56;;;;;;;3.30;3.00;;;;;;;;;;6201878;23;20020;-86
2024/01/18 01:37:42;;;;;;;4.93;3.05;;;;;;;;;;6180872;23;20017;-86
2024/01/18 01:40:30;;;;;;;3.47;2.88;;;;;;;;;;6202358;23;20457;-86
2024/01/18 01:43:18;;;;;;;2.85;2.55;;;;;;;;;;6181020;23;20020;-86
2024/01/18 01:46:04;;;;;;;3.22;2.80;;;;;;;;;;6180601;23;20021;-86
2024/01/18 01:48:50;;;;;;;3.97;2.80;;;;;;;;;;6181228;23;20327;-86
2024/01/18 01:51:41;;;;;;;4.38;2.83;;;;;;;;;;6202086;23;20744;-86
2024/01/18 01:54:29;;;;;;;3.30;2.85;;;;;;;;;;6181260;23;20021;-86
2024/01/18 01:57:16;;;;;;;2.60;2.40;;;;;;;;;;6193481;23;20013;-85
2024/01/18 02:00:07;;;;;;;4.10;3.08;;;;;;;;;;6160465;23;20017;-86
2024/01/18 02:02:55;;;;;;;3.53;2.85;;;;;;;;;;6201852;23;20457;-86
2024/01/18 02:05:42;;;;;;;3.63;2.92;;;;;;;;;;6180865;23;20017;-86
2024/01/18 02:08:28;;;;;;;3.50;2.75;;;;;;;;;;6180533;23;20013;-86
2024/01/18 02:11:14;;;;;;;3.65;2.65;;;;;;;;;;6202145;23;20338;-86
2024/01/18 02:14:00;;;;;;;3.58;3.03;;;;;;;;;;6180719;23;20461;-86
2024/01/18 02:16:47;;;;;;;3.42;2.80;;;;;;;;;;6180396;23;20024;-86
2024/01/18 02:19:33;;;;;;;3.65;2.70;;;;;;;;;;6180821;23;20017;-86
2024/01/18 02:22:21;;;;;;;4.63;3.30;;;;;;;;;;6180760;23;20016;-86
2024/01/18 02:25:18;;;;;;;3.22;2.80;;;;;;;;;;6181249;23;20017;-86
2024/01/18 02:28:05;;;;;;;3.47;2.92;;;;;;;;;;6180947;23;20024;-86
2024/01/18 02:30:51;;;;;;;2.95;2.63;;;;;;;;;;6180639;23;20016;-86
2024/01/18 02:33:37;;;;;;;3.80;2.70;;;;;;;;;;6180276;23;20013;-86
2024/01/18 02:36:26;;;;;;;2.60;2.40;;;;;;;;;;6181124;23;20020;-86
2024/01/18 02:39:12;;;;;;;3.38;2.75;;;;;;;;;;6180829;23;20017;-86
2024/01/18 02:42:00;;;;;;;3.38;2.42;;;;;;;;;;6181605;23;20021;-86
2024/01/18 02:44:46;;;;;;;3.38;2.67;;;;;;;;;;6182757;23;20016;-86
2024/01/18 02:47:32;;;;;;;4.07;2.72;;;;;;;;;;6182682;23;20330;-86
2024/01/18 02:50:18;;;;;;;3.72;2.78;;;;;;;;;;6182573;23;20016;-86
2024/01/18 02:53:04;;;;;;;3.17;2.35;;;;;;;;;;6182059;23;20020;-86
2024/01/18 02:55:51;;;;;;;2.90;2.35;;;;;;;;;;6182769;23;20020;-85
2024/01/18 02:58:38;;;;;;;3.30;2.58;;;;;;;;;;6182506;23;20020;-85
2024/01/18 03:01:24;;;;;;;3.00;2.38;;;;;;;;;;6182146;23;20342;-85
2024/01/18 03:04:12;;;;;;;2.92;2.40;;;;;;;;;;6181565;23;20020;-85
2024/01/18 03:07:01;;;;;;;3.13;2.53;;;;;;;;;;6182877;23;20017;-85
2024/01/18 03:09:47;;;;;;;3.17;2.60;;;;;;;;;;6203628;23;20017;-86
2024/01/18 03:12:37;;;;;;;2.72;2.25;;;;;;;;;;6202935;22;20008;-87
2024/01/18 03:15:27;;;;;;;3.03;2.60;;;;;;;;;;6207811;23;20338;-87
2024/01/18 03:18:15;;;;;;;2.47;2.28;;;;;;;;;;6166521;23;20024;-87
2024/01/18 03:21:05;;;;;;;2.83;2.58;;;;;;;;;;6230334;23;20017;-87
2024/01/18 03:23:54;;;;;;;2.58;2.38;;;;;;;;;;6206798;23;20024;-87
2024/01/18 03:26:39;;;;;;;2.40;2.10;;;;;;;;;;6186561;23;20334;-87
2024/01/18 03:29:31;;;;;;;3.22;2.40;;;;;;;;;;6187094;23;20012;-87
2024/01/18 03:32:18;;;;;;;2.47;2.15;;;;;;;;;;6185856;23;20021;-87
2024/01/18 03:35:07;;;;;;;2.30;2.10;;;;;;;;;;6187141;23;20020;-87
2024/01/18 03:37:53;;;;;;;2.53;2.03;;;;;;;;;;6207806;23;20017;-87
2024/01/18 03:40:39;;;;;;;3.72;2.70;;;;;;;;;;6186559;23;20013;-87
2024/01/18 03:43:25;;;;;;;2.53;2.13;;;;;;;;;;6187099;23;20021;-87
2024/01/18 03:46:14;;;;;;;2.40;2.20;;;;;;;;;;6187066;23;20012;-87
2024/01/18 03:49:07;;;;;;;2.10;1.90;;;;;;;;;;6187082;23;20020;-87
2024/01/18 03:51:53;;;;;;;2.58;2.20;;;;;;;;;;6185900;23;20452;-87
2024/01/18 03:54:41;;;;;;;2.08;1.88;;;;;;;;;;6186398;23;20020;-87
2024/01/18 03:57:27;;;;;;;3.10;2.22;;;;;;;;;;6207186;23;20021;-87
2024/01/18 04:00:13;;;;;;;2.90;2.20;;;;;;;;;;6187276;23;20017;-87
2024/01/18 04:03:00;;;;;;;3.08;2.30;;;;;;;;;;6207196;23;20012;-87
2024/01/18 04:05:47;;;;;;;2.92;2.40;;;;;;;;;;6185685;23;20017;-87
2024/01/18 04:08:32;;;;;;;2.10;1.83;;;;;;;;;;6185968;23;20017;-87
2024/01/18 04:11:18;;;;;;;2.58;2.38;;;;;;;;;;6186235;23;20016;-87
2024/01/18 04:14:05;;;;;;;2.70;2.28;;;;;;;;;;6186048;23;20016;-87
2024/01/18 04:16:53;;;;;;;2.50;2.00;;;;;;;;;;6165788;23;20021;-87
2024/01/18 04:19:40;;;;;;;2.20;2.00;;;;;;;;;;6206806;23;20016;-88
2024/01/18 04:22:27;;;;;;;2.08;1.88;;;;;;;;;;6183369;23;20017;-87
2024/01/18 04:25:13;;;;;;;2.40;2.20;;;;;;;;;;6183735;23;20021;-88
2024/01/18 04:28:01;;;;;;;2.85;2.05;;;;;;;;;;6205427;23;20460;-88
2024/01/18 04:30:47;;;;;;;2.40;2.15;;;;;;;;;;6184651;23;20456;-87
2024/01/18 04:33:33;;;;;;;2.28;2.05;;;;;;;;;;6205598;23;20016;-88
2024/01/18 04:36:20;;;;;;;2.00;1.80;;;;;;;;;;6185506;23;20025;-87
2024/01/18 04:39:09;;;;;;;2.50;1.98;;;;;;;;;;6205963;23;20021;-87
2024/01/18 04:41:55;;;;;;;2.38;2.00;;;;;;;;;;6206224;23;20024;-87
2024/01/18 04:44:42;;;;;;;2.60;2.05;;;;;;;;;;6186180;23;20330;-87
2024/01/18 04:47:29;;;;;;;3.05;2.08;;;;;;;;;;6206661;23;20013;-87
2024/01/18 04:50:16;;;;;;;3.13;2.20;;;;;;;;;;6186291;23;20017;-87
2024/01/18 04:53:02;;;;;;;2.72;2.40;;;;;;;;;;6185934;23;20017;-87
2024/01/18 04:55:49;;;;;;;2.15;1.85;;;;;;;;;;6185809;23;20017;-87
2024/01/18 04:58:36;;;;;;;2.30;2.08;;;;;;;;;;6206422;23;20021;-87
2024/01/18 05:01:25;;;;;;;2.33;2.03;;;;;;;;;;6184869;23;20017;-87
2024/01/18 05:04:11;;;;;;;2.60;1.90;;;;;;;;;;6184806;23;20013;-87
2024/01/18 05:06:57;;;;;;;2.22;2.03;;;;;;;;;;6165221;23;20021;-87
2024/01/18 05:09:44;;;;;;;2.50;2.22;;;;;;;;;;6186245;23;20017;-87
2024/01/18 05:12:33;;;;;;;2.65;2.13;;;;;;;;;;6206222;23;20453;-87
2024/01/18 05:15:19;;;;;;;2.00;1.80;;;;;;;;;;6164735;23;20012;-87
2024/01/18 05:18:07;;;;;;;2.42;1.90;;;;;;;;;;6164729;23;20020;-87
2024/01/18 05:20:53;;;;;;;2.25;1.67;;;;;;;;;;6185427;23;20326;-87
2024/01/18 05:23:38;;;;;;;3.42;2.10;;;;;;;;;;6206968;23;20020;-87
2024/01/18 05:26:24;;;;;;;2.63;2.10;;;;;;;;;;6185900;23;20013;-87
2024/01/18 05:29:11;;;;;;;2.13;1.83;;;;;;;;;;6186070;23;20024;-87
2024/01/18 05:32:00;;;;;;;2.60;2.05;;;;;;;;;;6166596;23;20572;-87
2024/01/18 05:34:46;;;;;;;2.33;1.92;;;;;;;;;;6186022;23;20020;-87
2024/01/18 05:37:32;;;;;;;2.63;2.00;;;;;;;;;;6185351;23;20020;-87
2024/01/18 05:40:22;;;;;;;2.30;1.73;;;;;;;;;;6185137;23;20453;-87
2024/01/18 05:43:08;;;;;;;1.90;1.60;;;;;;;;;;6185210;23;20020;-87
2024/01/18 05:45:58;;;;;;;2.70;2.08;;;;;;;;;;6204490;23;20020;-87
2024/01/18 05:48:44;;;;;;;2.47;1.90;;;;;;;;;;6206663;23;20020;-87
2024/01/18 05:51:30;;;;;;;1.73;1.55;;;;;;;;;;6165573;23;20016;-87
2024/01/18 05:54:16;;;;;;;2.08;1.70;;;;;;;;;;6184954;23;20020;-87
2024/01/18 05:57:05;;;;;;;2.85;2.20;;;;;;;;;;6185294;23;20020;-87
2024/01/18 05:59:51;;;;;;;1.92;1.42;;;;;;;;;;6184910;23;20017;-87
2024/01/18 06:02:38;;;;;;;2.38;1.83;;;;;;;;;;6187619;23;20017;-87
2024/01/18 06:05:27;;;;;;;1.83;1.58;;;;;;;;;;6186217;23;20017;-87
2024/01/18 06:08:16;;;;;;;2.58;1.70;;;;;;;;;;6229500;23;20017;-87
2024/01/18 06:11:02;;;;;;;1.77;1.50;;;;;;;;;;6185320;23;20021;-87
2024/01/18 06:13:48;;;;;;;2.03;1.70;;;;;;;;;;6223612;23;20024;-87
2024/01/18 06:16:34;;;;;;;2.30;1.80;;;;;;;;;;6225740;23;20021;-87
2024/01/18 06:19:23;;;;;;;1.77;1.42;;;;;;;;;;6188881;23;20024;-87
2024/01/18 06:22:08;;;;;;;1.60;1.40;;;;;;;;;;6167382;23;20016;-87
2024/01/18 06:24:57;;;;;;;1.77;1.60;;;;;;;;;;6189393;23;20021;-87
2024/01/18 06:27:43;;;;;;;1.95;1.70;;;;;;;;;;6188122;23;20020;-87
2024/01/18 06:30:29;;;;;;;2.28;1.73;;;;;;;;;;6166195;23;20020;-88
2024/01/18 06:33:15;;;;;;;1.58;1.40;;;;;;;;;;6185362;23;20472;-86
2024/01/18 06:36:06;;;;;;;1.73;1.50;;;;;;;;;;6184823;23;20016;-90
2024/01/18 06:38:51;;;;;;;1.70;1.40;;;;;;;;;;6205147;23;20322;-87
2024/01/18 06:41:40;;;;;;;1.40;1.30;;;;;;;;;;6208117;23;20013;-86
2024/01/18 06:44:26;;;;;;;3.67;1.55;;;;;;;;;;6187154;23;20017;-86
2024/01/18 06:47:11;;;;;;;1.73;1.50;;;;;;;;;;6208244;23;20020;-85
2024/01/18 06:55:00;;;;;;;1.70;1.52;;;;;;;;;;6074148;23;20026;-87
2024/01/18 07:03:07;;;;;;;1.35;1.25;;;;;;;;;;6080185;23;20021;-87
2024/01/18 07:07:23;;;;;;;2.08;1.63;;;;;;;;;;6017768;23;20019;-87
2024/01/18 07:10:55;;;;;;;1.55;1.33;;;;;;;;;;5944746;24;20354;-87
2024/01/18 07:27:24;;;;;;;1.40;1.10;;;;;;;;;;5774749;24;20027;-84
2024/01/18 07:30:17;;;;;;;1.77;1.30;;;;;;;;;;5992879;23;20023;-84
2024/01/18 07:33:04;;;;;;;1.40;1.30;;;;;;;;;;6132642;23;20014;-84
2024/01/18 07:35:50;;;;;;;1.38;1.25;;;;;;;;;;6127328;23;20025;-85
2024/01/18 07:38:36;;;;;;;1.65;1.20;;;;;;;;;;6177433;23;20024;-85
2024/01/18 07:41:22;;;;;;;2.00;1.23;;;;;;;;;;6179923;23;20330;-85
2024/01/18 07:44:14;;;;;;;1.40;1.30;;;;;;;;;;6202061;23;20013;-85
2024/01/18 07:47:16;;;;;;;1.83;1.27;;;;;;;;;;6182262;23;20021;-87
2024/01/18 07:50:02;;;;;;;1.52;1.40;;;;;;;;;;6201580;23;20020;-84
2024/01/18 07:52:48;;;;;;;1.60;1.30;;;;;;;;;;6201876;23;20021;-85
2024/01/18 07:55:34;;;;;;;2.58;1.23;;;;;;;;;;6181041;23;20024;-84
2024/01/18 07:58:20;;;;;;;1.50;1.17;;;;;;;;;;6202533;23;20020;-85
2024/01/18 08:01:08;;;;;;;2.10;1.38;;;;;;;;;;6181266;23;20013;-85
2024/01/18 08:03:55;;;;;;;1.30;1.20;;;;;;;;;;6181142;23;20024;-85
2024/01/18 08:06:42;;;;;;;1.85;1.30;;;;;;;;;;6181005;23;20024;-85
2024/01/18 08:09:29;;;;;;;1.40;1.13;;;;;;;;;;6180904;23;20468;-85
2024/01/18 08:12:15;;;;;;;1.60;1.20;;;;;;;;;;6180291;23;20461;-84
2024/01/18 08:15:00;;;;;;;1.45;1.20;;;;;;;;;;6180640;23;20449;-84
2024/01/18 08:17:48;;;;;;;2.20;1.25;;;;;;;;;;6180973;23;20025;-85
2024/01/18 08:20:35;;;;;;;2.38;1.30;;;;;;;;;;6181100;23;20020;-84
2024/01/18 08:23:22;;;;;;;1.50;1.20;;;;;;;;;;6180501;23;20020;-85
2024/01/18 08:26:09;;;;;;;1.50;1.30;;;;;;;;;;6181181;23;20047;-84
2024/01/18 08:28:55;;;;;;;1.95;1.33;;;;;;;;;;6181376;23;20488;-85
2024/01/18 08:31:44;;;;;;;1.58;1.08;;;;;;;;;;6180378;23;20016;-85
2024/01/18 08:34:32;;;;;;;1.67;1.30;;;;;;;;;;6181161;23;20341;-84
2024/01/18 08:37:17;;;;;;;1.33;1.00;;;;;;;;;;6200555;23;20016;-85
2024/01/18 08:40:04;;;;;;;1.13;1.02;;;;;;;;;;6223823;23;20021;-85
2024/01/18 08:42:50;;;;;;;3.30;0.90;;;;;;;;;;6223687;23;20334;-85
2024/01/18 08:45:38;;;;;;;1.80;1.30;;;;;;;;;;6180489;23;20021;-85
2024/01/18 08:48:24;;;;;;;1.30;1.20;;;;;;;;;;6200985;23;20024;-85
2024/01/18 08:51:13;;;;;;;1.38;1.00;;;;;;;;;;6222845;23;20025;-84
2024/01/18 08:54:00;;;;;;;1.35;1.17;;;;;;;;;;6180003;23;20021;-84
2024/01/18 08:56:47;;;;;;;1.10;1.00;;;;;;;;;;6194259;23;20020;-84
2024/01/18 08:59:33;;;;;;;1.25;1.00;;;;;;;;;;6179246;23;20020;-84
2024/01/18 09:02:20;;;;;;;3.25;1.10;;;;;;;;;;6178614;23;20016;-84
2024/01/18 09:05:06;;;;;;;1.67;1.15;;;;;;;;;;6178689;23;20020;-84
2024/01/18 09:07:54;;;;;;;1.67;1.20;;;;;;;;;;6179503;23;20016;-84
2024/01/18 09:10:41;;;;;;;1.33;1.00;;;;;;;;;;6180303;23;20013;-84
2024/01/18 09:13:27;;;;;;;2.08;1.00;;;;;;;;;;6196789;23;20020;-84
2024/01/18 09:16:16;;;;;;;1.23;1.10;;;;;;;;;;6197874;23;20024;-85
2024/01/18 09:19:02;;;;;;;1.70;1.17;;;;;;;;;;6202041;23;20020;-85
2024/01/18 09:21:48;;;;;;;1.50;1.00;;;;;;;;;;6180965;23;20017;-85
2024/01/18 09:24:35;;;;;;;1.63;0.90;;;;;;;;;;6202183;23;20016;-85
2024/01/18 09:27:23;;;;;;;1.13;0.88;;;;;;;;;;6201869;23;20017;-85
2024/01/18 09:30:12;;;;;;;1.40;1.00;;;;;;;;;;6180869;23;20350;-85
2024/01/18 09:33:12;;;;;;;1.25;1.00;;;;;;;;;;6201755;23;20016;-85
2024/01/18 09:36:12;;;;;;;1.27;0.90;;;;;;;;;;6199098;23;20020;-85
2024/01/18 10:02:48;;;;;;;;;;;;;;;;;;;;;
2024/01/18 10:06:14;;;;;;;1.23;0.90;;;;;;;;;;5892018;24;20033;-86
2024/01/18 10:09:00;;;;;;;1.00;0.88;;;;;;;;;;6043535;23;20023;-86
2024/01/18 10:11:49;;;;;;;1.25;1.02;;;;;;;;;;6026382;23;20370;-85
2024/01/18 10:27:30;;;;;;;0.98;0.60;;;;;;;;;;6179631;23;20021;-86
2024/01/18 10:42:32;;;;;;;1.88;0.68;;;;;;;;;;6074605;23;20019;-87
2024/01/18 10:45:19;;;;;;;;;;;;;;;;;;6183200;23;20460;-85
2024/01/18 10:48:07;;;;;;;1.20;0.75;;;;;;;;;;6173438;23;19927;-85
2024/01/18 10:51:21;;;;;;;1.30;0.90;;;;;;;;;;6152755;23;20017;-86
2024/01/18 10:54:11;;;;;;;0.80;0.70;;;;;;;;;;6152469;23;20454;-85
2024/01/18 10:57:06;;;;;;;1.35;0.75;;;;;;;;;;6154393;23;20021;-86
2024/01/18 10:59:53;;;;;;;1.42;1.10;;;;;;;;;;6152056;23;20021;-85
2024/01/18 11:02:42;;;;;;;1.20;0.80;;;;;;;;;;6151518;23;20469;-85
2024/01/18 11:05:36;;;;;;;1.27;0.88;;;;;;;;;;6172345;23;20021;-85
2024/01/18 11:08:23;;;;;;;2.05;0.90;;;;;;;;;;6173265;23;20021;-86
2024/01/18 11:11:26;;;;;;;1.30;0.90;;;;;;;;;;6153559;23;20017;-86
2024/01/18 11:14:15;;;;;;;0.95;0.85;;;;;;;;;;6172930;23;20326;-86
2024/01/18 11:17:07;;;;;;;0.82;0.82;;;;;;;;;;6173150;23;20334;-85
2024/01/18 11:20:01;;;;;;;1.20;0.88;;;;;;;;;;6152627;23;20450;-85
2024/01/18 11:22:47;;;;;;;1.00;0.70;;;;;;;;;;6151637;23;20013;-85
2024/01/18 11:25:57;;;;;;;1.00;0.80;;;;;;;;;;6152624;23;20021;-87
2024/01/18 11:29:27;;;;;;;0.88;0.70;;;;;;;;;;6152047;23;20021;-86
2024/01/18 11:32:20;;;;;;;2.53;0.70;;;;;;;;;;6172825;23;20021;-85
2024/01/18 11:35:15;;;;;;;1.10;0.80;;;;;;;;;;6152109;23;20469;-86
2024/01/18 11:38:18;;;;;;;1.95;0.95;;;;;;;;;;6151950;23;20017;-86
2024/01/18 11:41:05;;;;;;;1.05;0.70;;;;;;;;;;6152318;23;20457;-86
2024/01/18 11:43:55;;;;;;;1.00;0.70;;;;;;;;;;6151605;23;20017;-86
2024/01/18 11:46:44;;;;;;;0.98;0.75;;;;;;;;;;6172916;23;20017;-86
2024/01/18 11:49:32;;;;;;;1.60;1.02;;;;;;;;;;6172726;23;20021;-86
2024/01/18 11:52:26;;;;;;;1.40;0.70;;;;;;;;;;6152030;23;20021;-86
2024/01/18 11:55:14;;;;;;;0.93;0.80;;;;;;;;;;6151082;23;20021;-86
2024/01/18 11:58:02;;;;;;;0.90;0.70;;;;;;;;;;6174174;23;20414;-86
2024/01/18 12:00:48;;;;;;;1.15;0.80;;;;;;;;;;6173307;23;20470;-85
2024/01/18 12:03:35;;;;;;;1.33;0.90;;;;;;;;;;6172296;23;20322;-86
2024/01/18 12:06:23;;;;;;;1.05;0.82;;;;;;;;;;6152158;23;20017;-85
2024/01/18 12:09:10;;;;;;;1.10;0.85;;;;;;;;;;6151690;23;20017;-85
2024/01/18 12:12:00;;;;;;;0.88;0.70;;;;;;;;;;6151706;23;20021;-86
2024/01/18 12:14:48;;;;;;;0.93;0.75;;;;;;;;;;6151354;23;20017;-85
2024/01/18 12:17:34;;;;;;;1.05;0.90;;;;;;;;;;6185536;23;20013;-84
2024/01/18 12:20:20;;;;;;;0.90;0.70;;;;;;;;;;6151685;23;20021;-85
2024/01/18 12:23:39;;;;;;;1.40;0.93;;;;;;;;;;6172285;23;20339;-86
2024/01/18 12:34:10;;;;;;;1.30;0.90;;;;;;;;;;6129702;23;20017;-86
2024/01/18 12:36:56;;;;;;;1.42;0.70;;;;;;;;;;6151363;23;20025;-86
2024/01/18 12:39:42;;;;;;;1.23;0.80;;;;;;;;;;6151853;23;20017;-86
2024/01/18 12:42:33;;;;;;;0.77;0.70;;;;;;;;;;6151794;23;20017;-86
2024/01/18 12:45:22;;;;;;;1.38;0.80;;;;;;;;;;6151187;23;20021;-89
2024/01/18 12:48:17;;;;;;;1.20;0.70;;;;;;;;;;6173006;23;20013;-86
2024/01/18 12:51:10;;;;;;;1.20;1.02;;;;;;;;;;6172336;23;20024;-87
2024/01/18 12:54:02;;;;;;;1.77;0.90;;;;;;;;;;6151530;23;20025;-87
2024/01/18 13:22:54;;;;;;;2.40;1.40;;;;;;;;;;6014099;23;20020;-86
2024/01/18 13:25:46;;;;;;;2.00;1.02;;;;;;;;;;6066047;23;20022;-88
2024/01/18 13:28:38;;;;;;;1.00;0.90;;;;;;;;;;6091416;23;20371;-87
2024/01/18 13:32:13;;;;;;;1.70;1.00;;;;;;;;;;6111416;23;20018;-87
2024/01/18 13:39:44;;;;;;;1.60;1.00;;;;;;;;;;6118898;23;20024;-88
2024/01/18 13:43:02;;;;;;;;;;;;;;;;;;;;;
2024/01/18 13:46:04;;;;;;;1.25;0.90;;;;;;;;;;6221605;23;20322;-88
2024/01/18 13:48:50;;;;;;;;;;;;;;;;;;6181735;23;20016;-88
2024/01/18 13:51:36;;;;;;;1.80;0.88;;;;;;;;;;6224013;23;20387;-87
2024/01/18 13:54:22;;;;;;;1.10;1.00;;;;;;;;;;6224049;23;20342;-87
2024/01/18 13:57:59;;;;;;;1.33;0.95;;;;;;;;;;6180420;23;20017;-85
2024/01/18 14:00:47;;;;;;;1.00;0.90;;;;;;;;;;6201806;23;20016;-85
2024/01/18 14:03:33;;;;;;;1.17;0.90;;;;;;;;;;6163121;23;401720;-85
2024/01/18 14:06:22;;;;;;;1.58;1.13;;;;;;;;;;6197966;23;20337;-85
2024/01/18 14:09:08;;;;;;;1.35;1.00;;;;;;;;;;6180622;23;20016;-84
2024/01/18 14:11:54;;;;;;;1.52;1.00;;;;;;;;;;6201582;23;20017;-85
2024/01/18 14:14:40;;;;;;;0.95;0.73;;;;;;;;;;6202356;23;20016;-84
2024/01/18 14:17:27;;;;;;;4.30;2.55;;;;;;;;;;6192494;23;20024;-86
2024/01/18 14:20:14;;;;;;;2.50;1.70;;;;;;;;;;6222871;23;20021;-86
2024/01/18 14:23:00;;;;;;;5.53;1.70;;;;;;;;;;6224069;23;20021;-86
2024/01/18 14:25:46;;;;;;;2.60;1.10;;;;;;;;;;6199814;23;20017;-87
2024/01/18 14:28:32;;;;;;;1.95;1.50;;;;;;;;;;6202100;23;20017;-87
2024/01/18 14:31:18;;;;;;;6.82;1.33;;;;;;;;;;6180678;23;20020;-87
2024/01/18 14:34:06;;;;;;;4.15;1.13;;;;;;;;;;6224261;23;20017;-87
2024/01/18 14:36:52;;;;;;;1.17;0.90;;;;;;;;;;6181191;23;20017;-87
2024/01/18 14:39:38;;;;;;;2.63;1.38;;;;;;;;;;6182831;23;20373;-87
2024/01/18 14:42:24;;;;;;;1.67;0.90;;;;;;;;;;6203212;23;20012;-87
2024/01/18 14:45:11;;;;;;;3.35;1.77;;;;;;;;;;6203892;23;20404;-87
2024/01/18 14:48:09;;;;;;;2.47;1.20;;;;;;;;;;6182943;23;20457;-87
2024/01/18 14:50:56;;;;;;;1.55;1.10;;;;;;;;;;6182820;23;20017;-86
2024/01/18 14:53:44;;;;;;;1.42;0.95;;;;;;;;;;6182209;23;20017;-87
2024/01/18 14:56:30;;;;;;;1.08;0.82;;;;;;;;;;6182402;23;20020;-87
2024/01/18 14:59:18;;;;;;;2.03;1.13;;;;;;;;;;6203770;23;20024;-87
2024/01/18 15:02:05;;;;;;;2.70;1.25;;;;;;;;;;6225023;23;20021;-87
2024/01/18 15:04:51;;;;;;;4.05;1.27;;;;;;;;;;6194375;23;20017;-87
2024/01/18 15:07:39;;;;;;;3.80;1.25;;;;;;;;;;6182675;23;20016;-87
2024/01/18 15:10:25;;;;;;;1.50;1.10;;;;;;;;;;6182262;23;20017;-87
2024/01/18 15:16:08;;;;;;;1.55;1.10;;;;;;;;;;6193082;23;20021;-86
2024/01/18 15:18:54;;;;;;;1.92;1.30;;;;;;;;;;6180093;23;20020;-86
2024/01/18 15:21:41;;;;;;;2.65;1.48;;;;;;;;;;6158122;23;20477;-85
2024/01/18 15:24:28;;;;;;;7.93;1.95;;;;;;;;;;6151063;23;20017;-83
2024/01/18 15:27:15;;;;;;;1.92;1.27;;;;;;;;;;6142493;23;20051;-83
